createdAt,value
2022-12-03T00:01:43.527Z,8.33
2022-12-03T00:04:10.217Z,8.32
2022-12-03T00:06:36.977Z,8.35
2022-12-03T00:09:04.671Z,8.36
2022-12-03T00:11:31.525Z,8.38
2022-12-03T00:13:58.192Z,8.35
2022-12-03T00:16:24.847Z,8.38
2022-12-03T00:18:51.549Z,8.33
2022-12-03T00:21:18.296Z,8.34
2022-12-03T00:23:45.137Z,8.30
2022-12-03T00:26:11.766Z,8.25
2022-12-03T00:28:38.358Z,8.27
2022-12-03T00:31:05.248Z,8.21
2022-12-03T00:33:31.818Z,8.18
2022-12-03T00:35:58.529Z,8.18
2022-12-03T00:38:25.348Z,8.11
2022-12-03T00:40:52.198Z,8.14
2022-12-03T00:43:18.790Z,8.11
2022-12-03T00:45:45.441Z,8.04
2022-12-03T00:48:12.036Z,8.08
2022-12-03T00:50:38.649Z,8.05
2022-12-03T00:53:05.394Z,8.06
2022-12-03T00:55:32.066Z,8.05
2022-12-03T00:57:58.704Z,8.00
2022-12-03T01:00:25.492Z,7.95
2022-12-03T01:02:52.785Z,7.92
2022-12-03T01:05:20.454Z,7.90
2022-12-03T01:07:47.564Z,7.88
2022-12-03T01:10:14.355Z,7.82
2022-12-03T01:12:41.138Z,7.79
2022-12-03T01:15:08.490Z,7.85
2022-12-03T01:17:35.130Z,7.85
2022-12-03T01:20:02.116Z,7.85
2022-12-03T01:22:28.938Z,7.90
2022-12-03T01:24:55.839Z,7.94
2022-12-03T01:27:22.509Z,8.05
2022-12-03T01:29:49.348Z,8.14
2022-12-03T01:32:19.755Z,8.14
2022-12-03T01:34:51.315Z,8.13
2022-12-03T01:37:19.615Z,8.19
2022-12-03T01:39:46.444Z,8.25
2022-12-03T01:42:17.394Z,8.34
2022-12-03T01:44:45.625Z,8.34
2022-12-03T01:47:16.192Z,8.37
2022-12-03T01:49:50.846Z,8.33
2022-12-03T01:52:21.344Z,8.38
2022-12-03T01:54:52.684Z,8.38
2022-12-03T01:57:24.974Z,8.34
2022-12-03T01:59:52.785Z,8.33
2022-12-03T02:02:30.680Z,8.30
2022-12-03T02:04:58.260Z,8.31
2022-12-03T02:07:34.244Z,8.28
2022-12-03T02:10:04.186Z,8.29
2022-12-03T02:12:36.299Z,8.23
2022-12-03T02:15:05.045Z,8.26
2022-12-03T02:17:32.330Z,8.22
2022-12-03T02:20:00.061Z,8.25
2022-12-03T02:22:26.729Z,8.30
2022-12-03T02:24:59.695Z,8.40
2022-12-03T02:27:28.659Z,8.42
2022-12-03T02:29:55.849Z,8.48
2022-12-03T02:32:23.623Z,8.47
2022-12-03T02:34:51.435Z,8.47
2022-12-03T02:37:30.867Z,8.39
2022-12-03T02:40:02.246Z,8.35
2022-12-03T02:42:36.005Z,8.42
2022-12-03T02:45:05.912Z,8.43
2022-12-03T02:47:39.033Z,8.39
2022-12-03T02:50:06.194Z,8.29
2022-12-03T02:52:32.831Z,8.30
2022-12-03T02:55:00.153Z,8.28
2022-12-03T02:57:26.849Z,8.24
2022-12-03T02:59:53.829Z,8.29
2022-12-03T03:02:20.762Z,8.26
2022-12-03T03:04:48.001Z,8.28
2022-12-03T03:07:15.116Z,8.30
2022-12-03T03:09:42.065Z,8.31
2022-12-03T03:12:10.269Z,8.28
2022-12-03T03:14:37.003Z,8.32
2022-12-03T03:17:03.795Z,8.27
2022-12-03T03:19:30.715Z,8.32
2022-12-03T03:21:57.289Z,8.28
2022-12-03T03:24:24.535Z,8.30
2022-12-03T03:26:51.304Z,8.53
2022-12-03T03:29:18.533Z,8.53
2022-12-03T03:31:46.566Z,8.53
2022-12-03T03:34:14.424Z,8.56
2022-12-03T03:36:41.460Z,8.89
2022-12-03T03:39:08.599Z,9.13
2022-12-03T03:41:36.172Z,9.19
2022-12-03T03:44:06.401Z,9.35
2022-12-03T03:46:34.068Z,9.46
2022-12-03T03:49:02.376Z,9.44
2022-12-03T03:51:29.417Z,9.46
2022-12-03T03:53:56.241Z,9.44
2022-12-03T03:56:23.179Z,9.55
2022-12-03T03:58:49.821Z,9.62
2022-12-03T04:01:18.359Z,9.67
2022-12-03T04:03:45.258Z,9.65
2022-12-03T04:06:11.846Z,9.71
2022-12-03T04:08:38.610Z,9.70
2022-12-03T04:11:23.778Z,9.69
2022-12-03T04:13:50.436Z,9.69
2022-12-03T04:16:17.022Z,9.65
2022-12-03T04:18:43.599Z,9.71
2022-12-03T04:21:29.353Z,9.74
2022-12-03T04:23:56.061Z,9.69
2022-12-03T04:26:41.476Z,9.76
2022-12-03T04:29:08.146Z,9.79
2022-12-03T04:31:53.618Z,9.78
2022-12-03T04:34:38.952Z,9.74
2022-12-03T04:37:06.122Z,9.69
2022-12-03T04:39:33.493Z,9.69
2022-12-03T04:42:00.281Z,9.63
2022-12-03T04:44:33.301Z,9.57
2022-12-03T04:47:00.830Z,9.57
2022-12-03T04:49:27.505Z,9.53
2022-12-03T04:51:54.271Z,9.40
2022-12-03T04:54:21.038Z,9.51
2022-12-03T04:56:47.760Z,9.51
2022-12-03T04:59:16.469Z,9.53
2022-12-03T05:01:43.903Z,9.47
2022-12-03T05:04:11.474Z,9.35
2022-12-03T05:06:38.198Z,9.29
2022-12-03T05:09:05.354Z,9.29
2022-12-03T05:11:32.309Z,9.25
2022-12-03T05:13:58.916Z,9.19
2022-12-03T05:16:25.568Z,9.17
2022-12-03T05:18:52.410Z,9.14
2022-12-03T05:21:19.108Z,9.10
2022-12-03T05:23:45.841Z,9.09
2022-12-03T05:26:12.572Z,9.15
2022-12-03T05:28:39.244Z,9.11
2022-12-03T05:31:06.138Z,9.09
2022-12-03T05:33:33.178Z,9.01
2022-12-03T05:35:59.887Z,9.00
2022-12-03T05:38:27.189Z,9.07
2022-12-03T05:40:53.886Z,9.00
2022-12-03T05:43:20.524Z,8.99
2022-12-03T05:45:47.315Z,8.96
2022-12-03T05:48:16.089Z,8.97
2022-12-03T05:50:44.646Z,8.96
2022-12-03T05:53:11.953Z,8.94
2022-12-03T05:55:38.841Z,8.90
2022-12-03T05:58:05.851Z,8.85
2022-12-03T06:00:42.469Z,8.80
2022-12-03T06:03:10.518Z,8.63
2022-12-03T06:05:37.512Z,8.71
2022-12-03T06:08:04.347Z,8.64
2022-12-03T06:10:31.144Z,8.59
2022-12-03T06:12:57.819Z,8.63
2022-12-03T06:15:24.764Z,8.61
2022-12-03T06:17:51.471Z,8.57
2022-12-03T06:20:19.991Z,8.54
2022-12-03T06:22:47.625Z,8.43
2022-12-03T06:25:15.006Z,8.50
2022-12-03T06:27:41.623Z,8.47
2022-12-03T06:30:09.029Z,8.57
2022-12-03T06:32:35.934Z,8.62
2022-12-03T06:35:03.129Z,8.64
2022-12-03T06:37:29.877Z,8.56
2022-12-03T06:39:56.531Z,8.55
2022-12-03T06:42:23.212Z,8.52
2022-12-03T06:44:49.776Z,8.47
2022-12-03T06:47:16.428Z,8.52
2022-12-03T06:49:43.151Z,8.56
2022-12-03T06:52:09.778Z,8.55
2022-12-03T06:54:36.388Z,8.71
2022-12-03T06:57:03.160Z,8.71
2022-12-03T06:59:29.899Z,8.72
2022-12-03T07:01:56.560Z,8.70
2022-12-03T07:04:23.272Z,8.66
2022-12-03T07:06:49.988Z,8.62
2022-12-03T07:09:17.295Z,8.64
2022-12-03T07:11:44.141Z,8.59
2022-12-03T07:14:13.845Z,8.65
2022-12-03T07:16:43.112Z,8.69
2022-12-03T07:19:10.923Z,8.74
2022-12-03T07:21:38.201Z,8.78
2022-12-03T07:24:05.866Z,8.87
2022-12-03T07:26:32.897Z,8.85
2022-12-03T07:28:59.743Z,8.87
2022-12-03T07:31:26.480Z,8.93
2022-12-03T07:33:53.259Z,8.96
2022-12-03T07:36:19.886Z,8.99
2022-12-03T07:38:46.439Z,8.93
2022-12-03T07:41:13.295Z,9.02
2022-12-03T07:43:39.928Z,9.02
2022-12-03T07:46:06.742Z,9.01
2022-12-03T07:48:33.376Z,9.13
2022-12-03T07:50:59.982Z,9.18
2022-12-03T07:53:26.547Z,9.23
2022-12-03T07:55:53.261Z,9.27
2022-12-03T07:58:19.840Z,9.27
2022-12-03T08:00:46.419Z,9.21
2022-12-03T08:03:13.227Z,9.29
2022-12-03T08:05:39.828Z,9.32
2022-12-03T08:08:06.535Z,9.37
2022-12-03T08:10:33.244Z,9.54
2022-12-03T08:13:00.131Z,9.62
2022-12-03T08:15:32.377Z,9.65
2022-12-03T08:18:10.128Z,9.70
2022-12-03T08:20:40.308Z,9.72
2022-12-03T08:23:12.861Z,9.80
2022-12-03T08:25:40.600Z,9.80
2022-12-03T08:28:16.936Z,9.78
2022-12-03T08:30:45.216Z,9.84
2022-12-03T08:33:33.959Z,9.80
2022-12-03T08:36:02.573Z,9.86
2022-12-03T08:38:30.959Z,9.87
2022-12-03T08:40:57.818Z,9.86
2022-12-03T08:43:27.097Z,9.93
2022-12-03T08:45:55.492Z,9.92
2022-12-03T08:48:32.725Z,9.95
2022-12-03T08:51:11.192Z,9.94
2022-12-03T08:53:45.937Z,9.96
2022-12-03T08:56:30.461Z,10.02
2022-12-03T08:59:00.835Z,9.94
2022-12-03T09:01:31.881Z,10.11
2022-12-03T09:04:17.478Z,10.16
2022-12-03T09:06:44.179Z,10.11
2022-12-03T09:09:10.864Z,10.10
2022-12-03T09:11:37.767Z,10.11
2022-12-03T09:14:04.807Z,10.11
2022-12-03T09:16:32.022Z,10.16
2022-12-03T09:18:58.813Z,10.19
2022-12-03T09:21:25.394Z,10.24
2022-12-03T09:23:52.025Z,10.24
2022-12-03T09:26:18.602Z,10.24
2022-12-03T09:28:46.470Z,10.27
2022-12-03T09:31:13.026Z,10.27
2022-12-03T09:33:39.839Z,10.28
2022-12-03T09:36:06.595Z,10.34
2022-12-03T09:38:33.113Z,10.31
2022-12-03T09:41:00.183Z,10.41
2022-12-03T09:43:49.517Z,10.42
2022-12-03T09:46:15.366Z,10.47
2022-12-03T09:48:42.042Z,10.55
2022-12-03T09:51:10.816Z,10.54
2022-12-03T09:53:41.382Z,10.50
2022-12-03T09:56:17.776Z,10.55
2022-12-03T09:58:44.419Z,10.60
2022-12-03T10:01:15.118Z,10.63
2022-12-03T10:03:51.720Z,10.69
2022-12-03T10:06:23.414Z,10.75
2022-12-03T10:08:53.538Z,10.78
2022-12-03T10:11:22.778Z,10.80
2022-12-03T10:13:50.353Z,10.80
2022-12-03T10:16:20.909Z,10.89
2022-12-03T10:18:51.749Z,10.91
2022-12-03T10:21:20.023Z,11.07
2022-12-03T10:23:55.133Z,11.20
2022-12-03T10:26:40.652Z,11.29
2022-12-03T10:29:18.577Z,11.40
2022-12-03T10:31:45.787Z,11.50
2022-12-03T10:34:12.338Z,11.59
2022-12-03T10:36:38.954Z,11.62
2022-12-03T10:39:12.913Z,11.64
2022-12-03T10:41:41.314Z,11.65
2022-12-03T10:44:16.112Z,11.63
2022-12-03T10:46:43.282Z,11.63
2022-12-03T10:49:16.163Z,11.63
2022-12-03T10:51:43.737Z,11.69
2022-12-03T10:54:21.252Z,11.69
2022-12-03T10:56:49.356Z,11.77
2022-12-03T10:59:22.786Z,11.71
2022-12-03T11:01:50.456Z,11.75
2022-12-03T11:04:47.770Z,11.72
2022-12-03T11:07:16.817Z,11.63
2022-12-03T11:09:45.864Z,11.71
2022-12-03T11:12:21.453Z,11.69
2022-12-03T11:14:51.650Z,11.75
2022-12-03T11:17:41.727Z,11.79
2022-12-03T11:20:11.161Z,11.79
2022-12-03T11:22:40.751Z,11.80
2022-12-03T11:25:28.161Z,11.87
2022-12-03T11:28:13.054Z,11.89
2022-12-03T11:30:48.877Z,11.92
2022-12-03T11:33:36.313Z,11.99
2022-12-03T11:36:02.933Z,12.05
2022-12-03T11:38:38.518Z,12.02
2022-12-03T11:41:17.308Z,12.00
2022-12-03T11:43:53.213Z,11.99
2022-12-03T11:46:25.830Z,11.95
2022-12-03T11:48:54.846Z,11.89
2022-12-03T11:51:24.274Z,11.91
2022-12-03T11:53:53.510Z,11.91
2022-12-03T11:56:25.063Z,11.89
2022-12-03T11:58:59.903Z,11.88
2022-12-03T12:01:38.623Z,11.90
2022-12-03T12:04:06.918Z,11.95
2022-12-03T12:06:47.453Z,11.90
2022-12-03T12:09:50.749Z,11.91
2022-12-03T12:12:27.112Z,11.87
2022-12-03T12:14:53.818Z,11.81
2022-12-03T12:17:32.117Z,11.75
2022-12-03T12:20:25.021Z,11.71
2022-12-03T12:22:53.716Z,11.68
2022-12-03T12:25:40.278Z,11.65
2022-12-03T12:28:07.546Z,11.59
2022-12-03T12:30:34.390Z,11.59
2022-12-03T12:33:23.521Z,11.62
2022-12-03T12:35:51.394Z,11.58
2022-12-03T12:38:21.221Z,11.57
2022-12-03T12:40:50.345Z,11.56
2022-12-03T12:43:25.539Z,11.53
2022-12-03T12:45:57.161Z,11.48
2022-12-03T12:48:35.397Z,11.35
2022-12-03T12:51:11.368Z,11.41
2022-12-03T12:53:39.726Z,11.39
2022-12-03T12:56:31.740Z,11.31
2022-12-03T12:59:17.214Z,11.29
2022-12-03T13:01:45.647Z,11.32
2022-12-03T13:04:21.536Z,11.31
2022-12-03T13:06:52.938Z,11.28
2022-12-03T13:09:27.035Z,11.32
2022-12-03T13:12:04.133Z,11.34
2022-12-03T13:14:33.177Z,11.26
2022-12-03T13:17:01.183Z,11.25
2022-12-03T13:19:30.776Z,11.20
2022-12-03T13:22:01.875Z,11.23
2022-12-03T13:24:35.886Z,11.16
2022-12-03T13:27:23.483Z,11.24
2022-12-03T13:30:01.025Z,11.21
2022-12-03T13:32:31.865Z,11.27
2022-12-03T13:35:06.614Z,11.28
2022-12-03T13:37:33.628Z,11.31
2022-12-03T13:40:19.141Z,11.34
2022-12-03T13:42:46.625Z,11.31
2022-12-03T13:45:16.171Z,11.34
2022-12-03T13:47:47.492Z,11.36
2022-12-03T13:50:38.991Z,11.37
2022-12-03T13:53:11.847Z,11.38
2022-12-03T13:55:42.977Z,11.38
2022-12-03T13:58:09.623Z,11.32
2022-12-03T14:00:36.591Z,11.33
2022-12-03T14:03:03.399Z,11.38
2022-12-03T14:05:30.158Z,11.38
2022-12-03T14:08:02.134Z,11.42
2022-12-03T14:10:29.832Z,11.36
2022-12-03T14:12:56.777Z,11.37
2022-12-03T14:15:23.431Z,11.38
2022-12-03T14:17:50.057Z,11.40
2022-12-03T14:20:16.926Z,11.38
2022-12-03T14:22:43.554Z,11.38
2022-12-03T14:25:11.262Z,11.40
2022-12-03T14:27:37.870Z,11.33
2022-12-03T14:30:05.716Z,11.43
2022-12-03T14:32:32.562Z,11.41
2022-12-03T14:35:05.294Z,11.43
2022-12-03T14:37:34.883Z,11.32
2022-12-03T14:40:01.482Z,11.41
2022-12-03T14:42:28.075Z,11.44
2022-12-03T14:45:09.986Z,11.41
2022-12-03T14:47:36.810Z,11.38
2022-12-03T14:50:05.269Z,11.38
2022-12-03T14:52:31.934Z,11.35
2022-12-03T14:54:58.679Z,11.35
2022-12-03T14:57:25.450Z,11.31
2022-12-03T14:59:52.495Z,11.21
2022-12-03T15:02:19.629Z,11.18
2022-12-03T15:04:46.399Z,11.15
2022-12-03T15:07:13.173Z,11.07
2022-12-03T15:09:39.867Z,11.09
2022-12-03T15:12:06.967Z,11.08
2022-12-03T15:14:33.766Z,11.02
2022-12-03T15:17:00.588Z,11.06
2022-12-03T15:19:27.427Z,11.10
2022-12-03T15:21:54.177Z,11.04
2022-12-03T15:24:20.853Z,10.95
2022-12-03T15:26:47.662Z,10.93
2022-12-03T15:29:14.223Z,10.98
2022-12-03T15:31:40.943Z,11.01
2022-12-03T15:34:07.610Z,10.93
2022-12-03T15:36:34.178Z,10.98
2022-12-03T15:39:00.806Z,10.93
2022-12-03T15:41:30.401Z,10.90
2022-12-03T15:43:59.253Z,10.95
2022-12-03T15:46:27.823Z,10.88
2022-12-03T15:48:55.677Z,10.91
2022-12-03T15:51:22.359Z,10.90
2022-12-03T15:53:49.140Z,10.86
2022-12-03T15:56:16.225Z,10.91
2022-12-03T15:58:42.878Z,10.92
2022-12-03T16:01:10.019Z,10.88
2022-12-03T16:03:36.980Z,10.93
2022-12-03T16:06:03.730Z,10.92
2022-12-03T16:08:30.391Z,10.93
2022-12-03T16:10:57.197Z,10.90
2022-12-03T16:13:23.767Z,10.90
2022-12-03T16:15:50.871Z,10.95
2022-12-03T16:18:17.658Z,10.90
2022-12-03T16:20:44.285Z,10.92
2022-12-03T16:23:10.897Z,10.95
2022-12-03T16:25:37.607Z,10.93
2022-12-03T16:28:04.391Z,10.90
2022-12-03T16:30:31.070Z,10.90
2022-12-03T16:32:57.643Z,10.89
2022-12-03T16:35:24.195Z,10.91
2022-12-03T16:37:50.745Z,10.91
2022-12-03T16:40:17.551Z,10.87
2022-12-03T16:42:44.230Z,10.87
2022-12-03T16:45:11.369Z,10.91
2022-12-03T16:47:38.242Z,10.86
2022-12-03T16:50:11.574Z,10.86
2022-12-03T16:52:41.069Z,10.88
2022-12-03T16:55:08.070Z,10.87
2022-12-03T16:57:34.706Z,10.85
2022-12-03T17:00:01.356Z,10.83
2022-12-03T17:02:28.099Z,10.82
2022-12-03T17:04:54.985Z,10.83
2022-12-03T17:07:21.716Z,10.83
2022-12-03T17:09:48.426Z,10.78
2022-12-03T17:12:15.061Z,10.78
2022-12-03T17:14:41.715Z,10.77
2022-12-03T17:17:08.405Z,10.75
2022-12-03T17:19:35.121Z,10.73
2022-12-03T17:22:01.743Z,10.67
2022-12-03T17:24:28.328Z,10.70
2022-12-03T17:26:54.902Z,10.65
2022-12-03T17:29:21.461Z,10.64
2022-12-03T17:31:48.197Z,10.66
2022-12-03T17:34:15.107Z,10.64
2022-12-03T17:36:41.782Z,10.61
2022-12-03T17:39:08.492Z,10.62
2022-12-03T17:41:35.091Z,10.62
2022-12-03T17:44:06.005Z,10.63
2022-12-03T17:46:35.709Z,10.60
2022-12-03T17:49:02.315Z,10.64
2022-12-03T17:51:28.861Z,10.60
2022-12-03T17:53:55.427Z,10.59
2022-12-03T17:56:22.054Z,10.60
2022-12-03T17:58:48.623Z,10.58
2022-12-03T18:01:15.161Z,10.61
2022-12-03T18:03:41.781Z,10.57
2022-12-03T18:06:08.682Z,10.56
2022-12-03T18:08:35.358Z,10.56
2022-12-03T18:11:01.932Z,10.56
2022-12-03T18:13:28.599Z,10.55
2022-12-03T18:15:55.294Z,10.55
2022-12-03T18:18:22.090Z,10.54
2022-12-03T18:20:48.748Z,10.53
2022-12-03T18:23:15.443Z,10.49
2022-12-03T18:25:42.617Z,10.49
2022-12-03T18:28:09.227Z,10.45
2022-12-03T18:30:35.959Z,10.42
2022-12-03T18:33:02.699Z,10.38
2022-12-03T18:35:29.293Z,10.47
2022-12-03T18:37:56.004Z,10.52
2022-12-03T18:40:24.416Z,10.56
2022-12-03T18:42:51.078Z,10.62
2022-12-03T18:45:17.755Z,10.63
2022-12-03T18:47:44.679Z,10.63
2022-12-03T18:50:12.490Z,10.67
2022-12-03T18:52:39.457Z,10.71
2022-12-03T18:55:07.046Z,10.72
2022-12-03T18:57:33.787Z,10.66
2022-12-03T19:00:00.509Z,10.80
2022-12-03T19:02:54.289Z,10.84
2022-12-03T19:05:13.737Z,10.87
2022-12-03T19:07:40.402Z,10.82
2022-12-03T19:10:08.013Z,10.89
2022-12-03T19:12:34.641Z,10.93
2022-12-03T19:15:01.810Z,10.91
2022-12-03T19:17:28.427Z,10.86
2022-12-03T19:19:55.613Z,10.93
2022-12-03T19:22:22.959Z,10.93
2022-12-03T19:24:49.943Z,10.91
2022-12-03T19:27:16.567Z,10.89
2022-12-03T19:29:43.303Z,10.89
2022-12-03T19:32:09.945Z,10.86
2022-12-03T19:34:36.584Z,10.81
2022-12-03T19:37:03.208Z,10.84
2022-12-03T19:39:29.793Z,10.82
2022-12-03T19:41:56.393Z,10.77
2022-12-03T19:44:22.973Z,10.75
2022-12-03T19:46:50.331Z,10.73
2022-12-03T19:49:21.064Z,10.71
2022-12-03T19:51:48.086Z,10.64
2022-12-03T19:54:15.241Z,10.61
2022-12-03T19:56:41.924Z,10.58
2022-12-03T19:59:10.944Z,10.51
2022-12-03T20:01:40.726Z,10.56
2022-12-03T20:04:08.197Z,10.50
2022-12-03T20:06:37.776Z,10.47
2022-12-03T20:09:11.433Z,10.43
2022-12-03T20:11:39.942Z,10.37
2022-12-03T20:14:10.521Z,10.39
2022-12-03T20:16:37.363Z,10.31
2022-12-03T20:19:08.120Z,10.33
2022-12-03T20:21:36.742Z,10.34
2022-12-03T20:24:04.714Z,10.27
2022-12-03T20:26:31.348Z,10.25
2022-12-03T20:28:58.083Z,10.31
2022-12-03T20:31:27.933Z,10.33
2022-12-03T20:33:57.174Z,10.32
2022-12-03T20:36:24.737Z,10.30
2022-12-03T20:38:55.954Z,10.28
2022-12-03T20:41:23.015Z,10.22
2022-12-03T20:43:50.141Z,10.19
2022-12-03T20:46:28.761Z,10.18
2022-12-03T20:48:55.874Z,10.22
2022-12-03T20:51:25.059Z,10.22
2022-12-03T20:53:52.133Z,10.26
2022-12-03T20:56:31.513Z,10.32
2022-12-03T20:59:05.008Z,10.33
2022-12-03T21:01:32.470Z,10.30
2022-12-03T21:03:59.204Z,10.32
2022-12-03T21:06:28.239Z,10.32
2022-12-03T21:08:56.352Z,10.32
2022-12-03T21:11:25.280Z,10.31
2022-12-03T21:13:52.253Z,10.37
2022-12-03T21:16:45.704Z,10.36
2022-12-03T21:19:10.083Z,10.25
2022-12-03T21:21:36.695Z,10.41
2022-12-03T21:24:03.454Z,10.37
2022-12-03T21:26:30.110Z,10.41
2022-12-03T21:28:56.749Z,10.49
2022-12-03T21:31:25.866Z,10.51
2022-12-03T21:33:54.789Z,10.50
2022-12-03T21:36:21.603Z,10.53
2022-12-03T21:38:48.641Z,10.55
2022-12-03T21:41:16.051Z,10.54
2022-12-03T21:43:43.597Z,10.58
2022-12-03T21:47:12.204Z,10.59
2022-12-03T21:49:01.012Z,10.60
2022-12-03T21:51:27.641Z,10.59
2022-12-03T21:53:54.287Z,10.59
2022-12-03T21:56:20.927Z,10.59
2022-12-03T21:58:47.842Z,10.62
2022-12-03T22:01:18.514Z,10.60
2022-12-03T22:03:46.104Z,10.61
2022-12-03T22:06:13.341Z,10.59
2022-12-03T22:08:40.494Z,10.60
2022-12-03T22:11:09.676Z,10.60
2022-12-03T22:13:38.569Z,10.59
2022-12-03T22:16:06.265Z,10.61
2022-12-03T22:18:33.178Z,10.60
2022-12-03T22:21:04.486Z,10.63
2022-12-03T22:23:31.607Z,10.62
2022-12-03T22:26:03.492Z,10.61
2022-12-03T22:28:30.124Z,10.59
2022-12-03T22:30:56.934Z,10.57
2022-12-03T22:33:24.058Z,10.62
2022-12-03T22:36:02.210Z,10.66
2022-12-03T22:38:30.438Z,10.67
2022-12-03T22:40:57.612Z,10.68
2022-12-03T22:43:24.880Z,10.68
2022-12-03T22:45:55.808Z,10.67
2022-12-03T22:48:23.989Z,10.69
2022-12-03T22:50:51.873Z,10.73
2022-12-03T22:53:20.436Z,10.73
2022-12-03T22:55:56.093Z,10.75
2022-12-03T22:58:22.937Z,10.76
2022-12-03T23:00:50.001Z,10.76
2022-12-03T23:03:16.837Z,10.74
2022-12-03T23:05:43.518Z,10.70
2022-12-03T23:08:14.350Z,10.72
2022-12-03T23:10:43.548Z,10.72
2022-12-03T23:13:11.025Z,10.67
2022-12-03T23:15:38.196Z,10.68
2022-12-03T23:18:04.927Z,10.69
2022-12-03T23:20:31.580Z,10.72
2022-12-03T23:22:58.186Z,10.68
2022-12-03T23:25:24.790Z,10.70
2022-12-03T23:27:51.372Z,10.70
2022-12-03T23:30:18.126Z,10.72
2022-12-03T23:32:44.781Z,10.74
2022-12-03T23:35:12.453Z,10.73
2022-12-03T23:37:39.432Z,10.73
2022-12-03T23:40:06.862Z,10.72
2022-12-03T23:42:33.498Z,10.78
2022-12-03T23:45:00.141Z,10.79
2022-12-03T23:47:26.702Z,10.79
2022-12-03T23:49:53.708Z,10.78
2022-12-03T23:52:20.402Z,10.78
2022-12-03T23:54:47.070Z,10.77
2022-12-03T23:57:13.662Z,10.76
2022-12-03T23:59:42.244Z,10.79
